sensor_id;sensor_type;location;lat;lon;timestamp;P1;durP1;ratioP1;P2;durP2;ratioP2
59040;SDS011;44825;53.200;6.448;2022-08-18T00:02:07;9.57;;;3.75;;
59040;SDS011;44825;53.200;6.448;2022-08-18T00:04:37;11.18;;;3.63;;
59040;SDS011;44825;53.200;6.448;2022-08-18T00:07:06;11.38;;;3.58;;
59040;SDS011;44825;53.200;6.448;2022-08-18T00:09:36;11.20;;;4.03;;
59040;SDS011;44825;53.200;6.448;2022-08-18T00:12:05;13.00;;;3.90;;
59040;SDS011;44825;53.200;6.448;2022-08-18T00:14:34;8.60;;;3.30;;
59040;SDS011;44825;53.200;6.448;2022-08-18T00:17:02;10.75;;;3.83;;
59040;SDS011;44825;53.200;6.448;2022-08-18T00:19:31;17.13;;;4.20;;
59040;SDS011;44825;53.200;6.448;2022-08-18T00:21:58;10.43;;;3.90;;
59040;SDS011;44825;53.200;6.448;2022-08-18T00:24:25;12.52;;;4.63;;
59040;SDS011;44825;53.200;6.448;2022-08-18T00:26:52;9.40;;;3.28;;
59040;SDS011;44825;53.200;6.448;2022-08-18T00:29:20;12.48;;;4.78;;
59040;SDS011;44825;53.200;6.448;2022-08-18T00:31:47;12.27;;;4.75;;
59040;SDS011;44825;53.200;6.448;2022-08-18T00:34:14;11.40;;;4.20;;
59040;SDS011;44825;53.200;6.448;2022-08-18T00:36:43;10.40;;;4.60;;
59040;SDS011;44825;53.200;6.448;2022-08-18T00:39:10;18.40;;;4.47;;
59040;SDS011;44825;53.200;6.448;2022-08-18T00:41:38;11.00;;;4.28;;
59040;SDS011;44825;53.200;6.448;2022-08-18T00:44:05;12.13;;;4.30;;
59040;SDS011;44825;53.200;6.448;2022-08-18T00:46:33;15.73;;;5.07;;
59040;SDS011;44825;53.200;6.448;2022-08-18T00:49:03;18.98;;;5.13;;
59040;SDS011;44825;53.200;6.448;2022-08-18T00:51:33;19.48;;;4.32;;
59040;SDS011;44825;53.200;6.448;2022-08-18T00:54:06;10.82;;;4.53;;
59040;SDS011;44825;53.200;6.448;2022-08-18T00:56:39;16.60;;;4.57;;
59040;SDS011;44825;53.200;6.448;2022-08-18T00:59:10;15.02;;;4.40;;
59040;SDS011;44825;53.200;6.448;2022-08-18T01:01:43;12.68;;;4.65;;
59040;SDS011;44825;53.200;6.448;2022-08-18T01:04:13;14.82;;;4.60;;
59040;SDS011;44825;53.200;6.448;2022-08-18T01:06:44;16.25;;;5.43;;
59040;SDS011;44825;53.200;6.448;2022-08-18T01:09:17;11.98;;;4.38;;
59040;SDS011;44825;53.200;6.448;2022-08-18T01:11:45;11.13;;;4.70;;
59040;SDS011;44825;53.200;6.448;2022-08-18T01:14:12;10.20;;;4.78;;
59040;SDS011;44825;53.200;6.448;2022-08-18T01:16:42;20.35;;;5.10;;
59040;SDS011;44825;53.200;6.448;2022-08-18T01:19:28;13.32;;;4.65;;
59040;SDS011;44825;53.200;6.448;2022-08-18T01:22:16;12.82;;;5.75;;
59040;SDS011;44825;53.200;6.448;2022-08-18T01:24:51;10.65;;;4.45;;
59040;SDS011;44825;53.200;6.448;2022-08-18T01:27:40;9.48;;;4.40;;
59040;SDS011;44825;53.200;6.448;2022-08-18T01:30:09;16.88;;;4.85;;
59040;SDS011;44825;53.200;6.448;2022-08-18T01:32:38;11.52;;;4.35;;
59040;SDS011;44825;53.200;6.448;2022-08-18T01:35:08;13.02;;;4.68;;
59040;SDS011;44825;53.200;6.448;2022-08-18T01:37:37;11.68;;;4.72;;
59040;SDS011;44825;53.200;6.448;2022-08-18T01:40:08;15.40;;;4.45;;
59040;SDS011;44825;53.200;6.448;2022-08-18T01:42:37;16.50;;;5.22;;
59040;SDS011;44825;53.200;6.448;2022-08-18T01:45:08;13.85;;;5.00;;
59040;SDS011;44825;53.200;6.448;2022-08-18T01:47:37;13.27;;;4.88;;
59040;SDS011;44825;53.200;6.448;2022-08-18T01:50:05;10.43;;;4.60;;
59040;SDS011;44825;53.200;6.448;2022-08-18T01:52:35;8.27;;;4.07;;
59040;SDS011;44825;53.200;6.448;2022-08-18T01:55:02;12.40;;;4.82;;
59040;SDS011;44825;53.200;6.448;2022-08-18T01:57:34;14.02;;;4.80;;
59040;SDS011;44825;53.200;6.448;2022-08-18T02:00:03;14.02;;;5.22;;
59040;SDS011;44825;53.200;6.448;2022-08-18T02:02:31;15.15;;;5.43;;
59040;SDS011;44825;53.200;6.448;2022-08-18T02:05:00;12.38;;;4.43;;
59040;SDS011;44825;53.200;6.448;2022-08-18T02:07:30;14.60;;;5.38;;
59040;SDS011;44825;53.200;6.448;2022-08-18T02:09:58;17.40;;;5.03;;
59040;SDS011;44825;53.200;6.448;2022-08-18T02:12:26;7.97;;;4.97;;
59040;SDS011;44825;53.200;6.448;2022-08-18T02:14:55;14.27;;;5.07;;
59040;SDS011;44825;53.200;6.448;2022-08-18T02:17:22;13.52;;;4.70;;
59040;SDS011;44825;53.200;6.448;2022-08-18T02:19:49;15.52;;;5.68;;
59040;SDS011;44825;53.200;6.448;2022-08-18T02:22:19;10.73;;;4.55;;
59040;SDS011;44825;53.200;6.448;2022-08-18T02:24:47;14.07;;;5.47;;
59040;SDS011;44825;53.200;6.448;2022-08-18T02:27:14;11.88;;;4.57;;
59040;SDS011;44825;53.200;6.448;2022-08-18T02:29:42;10.02;;;4.93;;
59040;SDS011;44825;53.200;6.448;2022-08-18T02:32:11;10.20;;;4.35;;
59040;SDS011;44825;53.200;6.448;2022-08-18T02:34:38;9.80;;;5.03;;
59040;SDS011;44825;53.200;6.448;2022-08-18T02:37:07;13.68;;;4.78;;
59040;SDS011;44825;53.200;6.448;2022-08-18T02:39:36;10.32;;;5.35;;
59040;SDS011;44825;53.200;6.448;2022-08-18T02:42:03;10.90;;;5.10;;
59040;SDS011;44825;53.200;6.448;2022-08-18T02:44:32;12.15;;;5.18;;
59040;SDS011;44825;53.200;6.448;2022-08-18T02:47:00;12.57;;;4.85;;
59040;SDS011;44825;53.200;6.448;2022-08-18T02:49:28;12.02;;;6.25;;
59040;SDS011;44825;53.200;6.448;2022-08-18T02:51:56;12.05;;;5.38;;
59040;SDS011;44825;53.200;6.448;2022-08-18T02:54:23;12.23;;;5.57;;
59040;SDS011;44825;53.200;6.448;2022-08-18T02:56:51;13.15;;;5.35;;
59040;SDS011;44825;53.200;6.448;2022-08-18T02:59:19;13.93;;;5.40;;
59040;SDS011;44825;53.200;6.448;2022-08-18T03:01:50;14.27;;;5.97;;
59040;SDS011;44825;53.200;6.448;2022-08-18T03:04:20;10.55;;;5.00;;
59040;SDS011;44825;53.200;6.448;2022-08-18T03:06:51;9.75;;;5.45;;
59040;SDS011;44825;53.200;6.448;2022-08-18T03:09:19;12.73;;;5.85;;
59040;SDS011;44825;53.200;6.448;2022-08-18T03:11:47;13.93;;;5.70;;
59040;SDS011;44825;53.200;6.448;2022-08-18T03:14:14;11.57;;;5.43;;
59040;SDS011;44825;53.200;6.448;2022-08-18T03:16:43;13.35;;;6.05;;
59040;SDS011;44825;53.200;6.448;2022-08-18T03:19:12;10.77;;;5.72;;
59040;SDS011;44825;53.200;6.448;2022-08-18T03:21:41;16.80;;;6.07;;
59040;SDS011;44825;53.200;6.448;2022-08-18T03:24:11;15.73;;;6.45;;
59040;SDS011;44825;53.200;6.448;2022-08-18T03:26:40;10.25;;;5.45;;
59040;SDS011;44825;53.200;6.448;2022-08-18T03:29:08;11.50;;;6.18;;
59040;SDS011;44825;53.200;6.448;2022-08-18T03:31:36;11.60;;;6.28;;
59040;SDS011;44825;53.200;6.448;2022-08-18T03:34:05;17.40;;;7.03;;
59040;SDS011;44825;53.200;6.448;2022-08-18T03:36:34;9.77;;;6.03;;
59040;SDS011;44825;53.200;6.448;2022-08-18T03:39:02;10.82;;;5.90;;
59040;SDS011;44825;53.200;6.448;2022-08-18T03:41:32;12.23;;;6.57;;
59040;SDS011;44825;53.200;6.448;2022-08-18T03:44:00;11.82;;;5.55;;
59040;SDS011;44825;53.200;6.448;2022-08-18T03:46:28;17.77;;;6.72;;
59040;SDS011;44825;53.200;6.448;2022-08-18T03:48:56;12.70;;;5.65;;
59040;SDS011;44825;53.200;6.448;2022-08-18T03:51:24;14.60;;;6.20;;
59040;SDS011;44825;53.200;6.448;2022-08-18T03:53:54;14.40;;;6.07;;
59040;SDS011;44825;53.200;6.448;2022-08-18T03:56:24;10.57;;;6.53;;
59040;SDS011;44825;53.200;6.448;2022-08-18T03:58:55;12.93;;;6.43;;
59040;SDS011;44825;53.200;6.448;2022-08-18T04:01:24;10.80;;;5.90;;
59040;SDS011;44825;53.200;6.448;2022-08-18T04:03:54;17.23;;;6.95;;
59040;SDS011;44825;53.200;6.448;2022-08-18T04:06:23;11.02;;;6.30;;
59040;SDS011;44825;53.200;6.448;2022-08-18T04:08:53;16.13;;;6.18;;
59040;SDS011;44825;53.200;6.448;2022-08-18T04:11:22;12.73;;;5.43;;
59040;SDS011;44825;53.200;6.448;2022-08-18T04:13:50;11.23;;;6.32;;
59040;SDS011;44825;53.200;6.448;2022-08-18T04:16:18;11.25;;;6.35;;
59040;SDS011;44825;53.200;6.448;2022-08-18T04:18:46;11.25;;;6.72;;
59040;SDS011;44825;53.200;6.448;2022-08-18T04:21:13;11.00;;;6.85;;
59040;SDS011;44825;53.200;6.448;2022-08-18T04:23:40;10.57;;;6.95;;
59040;SDS011;44825;53.200;6.448;2022-08-18T04:26:08;9.98;;;6.47;;
59040;SDS011;44825;53.200;6.448;2022-08-18T04:28:37;10.43;;;6.85;;
59040;SDS011;44825;53.200;6.448;2022-08-18T04:31:06;13.70;;;6.95;;
59040;SDS011;44825;53.200;6.448;2022-08-18T04:33:36;14.23;;;7.22;;
59040;SDS011;44825;53.200;6.448;2022-08-18T04:36:07;9.70;;;6.80;;
59040;SDS011;44825;53.200;6.448;2022-08-18T04:38:36;9.98;;;7.78;;
59040;SDS011;44825;53.200;6.448;2022-08-18T04:41:04;9.73;;;7.05;;
59040;SDS011;44825;53.200;6.448;2022-08-18T04:43:33;10.60;;;6.95;;
59040;SDS011;44825;53.200;6.448;2022-08-18T04:46:00;15.68;;;7.85;;
59040;SDS011;44825;53.200;6.448;2022-08-18T04:48:28;12.00;;;7.25;;
59040;SDS011;44825;53.200;6.448;2022-08-18T04:51:07;10.57;;;6.93;;
59040;SDS011;44825;53.200;6.448;2022-08-18T04:53:35;11.55;;;7.07;;
59040;SDS011;44825;53.200;6.448;2022-08-18T04:56:15;9.50;;;6.68;;
59040;SDS011;44825;53.200;6.448;2022-08-18T04:58:50;10.85;;;7.30;;
59040;SDS011;44825;53.200;6.448;2022-08-18T05:01:19;11.55;;;7.57;;
59040;SDS011;44825;53.200;6.448;2022-08-18T05:03:48;11.15;;;7.43;;
59040;SDS011;44825;53.200;6.448;2022-08-18T05:06:18;8.52;;;7.15;;
59040;SDS011;44825;53.200;6.448;2022-08-18T05:08:49;12.25;;;7.05;;
59040;SDS011;44825;53.200;6.448;2022-08-18T05:11:18;10.85;;;6.97;;
59040;SDS011;44825;53.200;6.448;2022-08-18T05:13:46;9.77;;;6.38;;
59040;SDS011;44825;53.200;6.448;2022-08-18T05:16:14;10.05;;;6.57;;
59040;SDS011;44825;53.200;6.448;2022-08-18T05:18:41;11.93;;;6.40;;
59040;SDS011;44825;53.200;6.448;2022-08-18T05:21:09;11.90;;;6.40;;
59040;SDS011;44825;53.200;6.448;2022-08-18T05:23:40;8.27;;;5.78;;
59040;SDS011;44825;53.200;6.448;2022-08-18T05:26:07;10.88;;;6.30;;
59040;SDS011;44825;53.200;6.448;2022-08-18T05:28:36;11.93;;;5.75;;
59040;SDS011;44825;53.200;6.448;2022-08-18T05:31:07;10.43;;;5.57;;
59040;SDS011;44825;53.200;6.448;2022-08-18T05:33:36;8.88;;;4.60;;
59040;SDS011;44825;53.200;6.448;2022-08-18T05:36:05;9.38;;;5.28;;
59040;SDS011;44825;53.200;6.448;2022-08-18T05:38:47;7.80;;;4.50;;
59040;SDS011;44825;53.200;6.448;2022-08-18T05:41:21;10.88;;;4.85;;
59040;SDS011;44825;53.200;6.448;2022-08-18T05:43:54;6.78;;;4.35;;
59040;SDS011;44825;53.200;6.448;2022-08-18T05:46:23;8.55;;;4.15;;
59040;SDS011;44825;53.200;6.448;2022-08-18T05:49:05;9.98;;;4.18;;
59040;SDS011;44825;53.200;6.448;2022-08-18T05:51:34;10.02;;;4.70;;
59040;SDS011;44825;53.200;6.448;2022-08-18T05:54:07;10.00;;;4.82;;
59040;SDS011;44825;53.200;6.448;2022-08-18T05:56:53;11.73;;;5.00;;
59040;SDS011;44825;53.200;6.448;2022-08-18T05:59:24;9.85;;;4.53;;
59040;SDS011;44825;53.200;6.448;2022-08-18T06:01:55;9.27;;;4.78;;
59040;SDS011;44825;53.200;6.448;2022-08-18T06:04:32;9.98;;;4.13;;
59040;SDS011;44825;53.200;6.448;2022-08-18T06:07:09;14.13;;;5.28;;
59040;SDS011;44825;53.200;6.448;2022-08-18T06:09:43;8.52;;;4.07;;
59040;SDS011;44825;53.200;6.448;2022-08-18T06:12:19;9.40;;;4.03;;
59040;SDS011;44825;53.200;6.448;2022-08-18T06:14:51;9.93;;;3.50;;
59040;SDS011;44825;53.200;6.448;2022-08-18T06:17:32;8.45;;;3.28;;
59040;SDS011;44825;53.200;6.448;2022-08-18T06:20:14;9.05;;;3.35;;
59040;SDS011;44825;53.200;6.448;2022-08-18T06:22:50;8.18;;;3.83;;
59040;SDS011;44825;53.200;6.448;2022-08-18T06:25:25;8.65;;;4.10;;
59040;SDS011;44825;53.200;6.448;2022-08-18T06:28:00;9.05;;;3.92;;
59040;SDS011;44825;53.200;6.448;2022-08-18T06:30:43;10.52;;;4.00;;
59040;SDS011;44825;53.200;6.448;2022-08-18T06:33:20;8.57;;;4.05;;
59040;SDS011;44825;53.200;6.448;2022-08-18T06:36:02;11.13;;;3.40;;
59040;SDS011;44825;53.200;6.448;2022-08-18T06:38:41;13.45;;;3.30;;
59040;SDS011;44825;53.200;6.448;2022-08-18T06:41:20;5.70;;;3.10;;
59040;SDS011;44825;53.200;6.448;2022-08-18T06:43:55;11.00;;;2.95;;
59040;SDS011;44825;53.200;6.448;2022-08-18T06:46:30;8.57;;;2.63;;
59040;SDS011;44825;53.200;6.448;2022-08-18T06:49:07;4.35;;;1.90;;
59040;SDS011;44825;53.200;6.448;2022-08-18T06:51:36;5.40;;;1.30;;
59040;SDS011;44825;53.200;6.448;2022-08-18T06:54:05;2.60;;;1.20;;
59040;SDS011;44825;53.200;6.448;2022-08-18T06:56:47;4.53;;;1.10;;
59040;SDS011;44825;53.200;6.448;2022-08-18T06:59:20;3.20;;;1.20;;
59040;SDS011;44825;53.200;6.448;2022-08-18T07:04:32;6.88;;;1.52;;
59040;SDS011;44825;53.200;6.448;2022-08-18T07:07:27;4.93;;;1.65;;
59040;SDS011;44825;53.200;6.448;2022-08-18T07:09:57;7.10;;;1.50;;
59040;SDS011;44825;53.200;6.448;2022-08-18T07:12:26;6.22;;;1.85;;
59040;SDS011;44825;53.200;6.448;2022-08-18T07:14:56;7.78;;;2.28;;
59040;SDS011;44825;53.200;6.448;2022-08-18T07:17:25;8.00;;;2.40;;
59040;SDS011;44825;53.200;6.448;2022-08-18T07:19:59;9.00;;;2.50;;
59040;SDS011;44825;53.200;6.448;2022-08-18T07:22:31;11.52;;;2.47;;
59040;SDS011;44825;53.200;6.448;2022-08-18T07:24:59;7.60;;;2.35;;
59040;SDS011;44825;53.200;6.448;2022-08-18T07:27:40;8.27;;;2.30;;
59040;SDS011;44825;53.200;6.448;2022-08-18T07:30:12;8.05;;;2.13;;
59040;SDS011;44825;53.200;6.448;2022-08-18T07:32:56;7.93;;;2.00;;
59040;SDS011;44825;53.200;6.448;2022-08-18T07:35:43;5.97;;;1.85;;
59040;SDS011;44825;53.200;6.448;2022-08-18T07:38:16;7.05;;;1.90;;
59040;SDS011;44825;53.200;6.448;2022-08-18T07:40:50;6.55;;;1.90;;
59040;SDS011;44825;53.200;6.448;2022-08-18T07:45:54;9.45;;;2.33;;
59040;SDS011;44825;53.200;6.448;2022-08-18T07:48:29;8.43;;;1.88;;
59040;SDS011;44825;53.200;6.448;2022-08-18T07:51:04;9.00;;;1.85;;
59040;SDS011;44825;53.200;6.448;2022-08-18T07:53:40;9.80;;;2.53;;
59040;SDS011;44825;53.200;6.448;2022-08-18T07:56:18;7.85;;;1.98;;
59040;SDS011;44825;53.200;6.448;2022-08-18T07:58:57;6.80;;;1.80;;
59040;SDS011;44825;53.200;6.448;2022-08-18T08:01:31;5.68;;;1.60;;
59040;SDS011;44825;53.200;6.448;2022-08-18T08:04:07;6.68;;;1.90;;
59040;SDS011;44825;53.200;6.448;2022-08-18T08:06:42;5.63;;;1.73;;
59040;SDS011;44825;53.200;6.448;2022-08-18T08:11:49;4.75;;;2.00;;
59040;SDS011;44825;53.200;6.448;2022-08-18T08:14:25;8.23;;;1.90;;
59040;SDS011;44825;53.200;6.448;2022-08-18T08:17:04;8.25;;;1.70;;
59040;SDS011;44825;53.200;6.448;2022-08-18T08:19:41;7.70;;;1.92;;
59040;SDS011;44825;53.200;6.448;2022-08-18T08:22:16;5.38;;;1.45;;
59040;SDS011;44825;53.200;6.448;2022-08-18T08:24:48;4.95;;;1.60;;
59040;SDS011;44825;53.200;6.448;2022-08-18T08:27:25;5.45;;;2.13;;
59040;SDS011;44825;53.200;6.448;2022-08-18T08:30:03;4.53;;;2.13;;
59040;SDS011;44825;53.200;6.448;2022-08-18T08:32:34;5.55;;;1.70;;
59040;SDS011;44825;53.200;6.448;2022-08-18T08:35:04;4.70;;;1.63;;
59040;SDS011;44825;53.200;6.448;2022-08-18T08:37:37;5.32;;;1.88;;
59040;SDS011;44825;53.200;6.448;2022-08-18T08:40:12;5.68;;;1.38;;
59040;SDS011;44825;53.200;6.448;2022-08-18T08:42:44;5.20;;;1.35;;
59040;SDS011;44825;53.200;6.448;2022-08-18T08:45:20;3.97;;;1.50;;
59040;SDS011;44825;53.200;6.448;2022-08-18T08:47:52;4.32;;;1.55;;
59040;SDS011;44825;53.200;6.448;2022-08-18T08:50:25;5.45;;;1.85;;
59040;SDS011;44825;53.200;6.448;2022-08-18T08:52:58;3.95;;;1.45;;
59040;SDS011;44825;53.200;6.448;2022-08-18T08:55:28;7.60;;;1.88;;
59040;SDS011;44825;53.200;6.448;2022-08-18T08:58:02;6.93;;;2.28;;
59040;SDS011;44825;53.200;6.448;2022-08-18T09:00:43;3.80;;;1.70;;
59040;SDS011;44825;53.200;6.448;2022-08-18T09:03:19;4.13;;;1.92;;
59040;SDS011;44825;53.200;6.448;2022-08-18T09:05:53;3.45;;;1.60;;
59040;SDS011;44825;53.200;6.448;2022-08-18T09:08:45;5.00;;;1.70;;
59040;SDS011;44825;53.200;6.448;2022-08-18T09:11:33;5.57;;;1.48;;
59040;SDS011;44825;53.200;6.448;2022-08-18T09:14:41;4.88;;;1.65;;
59040;SDS011;44825;53.200;6.448;2022-08-18T09:17:37;3.53;;;1.60;;
59040;SDS011;44825;53.200;6.448;2022-08-18T09:20:25;4.40;;;1.60;;
59040;SDS011;44825;53.200;6.448;2022-08-18T09:23:01;3.97;;;1.52;;
59040;SDS011;44825;53.200;6.448;2022-08-18T09:25:33;2.47;;;1.58;;
59040;SDS011;44825;53.200;6.448;2022-08-18T09:28:12;4.85;;;2.00;;
59040;SDS011;44825;53.200;6.448;2022-08-18T09:30:44;6.22;;;2.47;;
59040;SDS011;44825;53.200;6.448;2022-08-18T09:33:22;6.97;;;2.20;;
59040;SDS011;44825;53.200;6.448;2022-08-18T09:36:16;5.22;;;1.60;;
59040;SDS011;44825;53.200;6.448;2022-08-18T09:38:54;3.95;;;1.33;;
59040;SDS011;44825;53.200;6.448;2022-08-18T09:41:45;4.25;;;1.58;;
59040;SDS011;44825;53.200;6.448;2022-08-18T09:47:12;4.15;;;1.85;;
59040;SDS011;44825;53.200;6.448;2022-08-18T09:50:37;3.05;;;1.20;;
59040;SDS011;44825;53.200;6.448;2022-08-18T09:53:32;7.40;;;1.73;;
59040;SDS011;44825;53.200;6.448;2022-08-18T09:56:02;6.28;;;1.85;;
59040;SDS011;44825;53.200;6.448;2022-08-18T09:58:51;4.72;;;1.90;;
59040;SDS011;44825;53.200;6.448;2022-08-18T10:01:21;5.65;;;1.75;;
59040;SDS011;44825;53.200;6.448;2022-08-18T10:06:54;3.75;;;1.40;;
59040;SDS011;44825;53.200;6.448;2022-08-18T10:09:48;5.05;;;1.65;;
59040;SDS011;44825;53.200;6.448;2022-08-18T10:12:39;4.00;;;1.40;;
59040;SDS011;44825;53.200;6.448;2022-08-18T10:15:22;8.63;;;1.73;;
59040;SDS011;44825;53.200;6.448;2022-08-18T10:18:11;5.55;;;1.50;;
59040;SDS011;44825;53.200;6.448;2022-08-18T10:21:10;6.35;;;1.83;;
59040;SDS011;44825;53.200;6.448;2022-08-18T10:23:50;6.65;;;2.00;;
59040;SDS011;44825;53.200;6.448;2022-08-18T10:29:47;5.15;;;1.42;;
59040;SDS011;44825;53.200;6.448;2022-08-18T10:32:24;4.95;;;1.73;;
59040;SDS011;44825;53.200;6.448;2022-08-18T10:35:04;4.93;;;1.60;;
59040;SDS011;44825;53.200;6.448;2022-08-18T10:37:53;6.15;;;1.42;;
59040;SDS011;44825;53.200;6.448;2022-08-18T10:40:23;4.40;;;1.45;;
59040;SDS011;44825;53.200;6.448;2022-08-18T10:42:52;4.07;;;1.50;;
59040;SDS011;44825;53.200;6.448;2022-08-18T10:45:33;5.60;;;1.83;;
59040;SDS011;44825;53.200;6.448;2022-08-18T10:48:04;4.78;;;1.70;;
59040;SDS011;44825;53.200;6.448;2022-08-18T10:50:36;7.13;;;2.13;;
59040;SDS011;44825;53.200;6.448;2022-08-18T10:53:10;5.82;;;1.75;;
59040;SDS011;44825;53.200;6.448;2022-08-18T10:55:48;5.65;;;1.75;;
59040;SDS011;44825;53.200;6.448;2022-08-18T11:01:28;4.95;;;1.65;;
59040;SDS011;44825;53.200;6.448;2022-08-18T11:04:21;4.45;;;1.50;;
59040;SDS011;44825;53.200;6.448;2022-08-18T11:06:55;4.30;;;1.52;;
59040;SDS011;44825;53.200;6.448;2022-08-18T11:09:28;8.50;;;2.00;;
59040;SDS011;44825;53.200;6.448;2022-08-18T11:11:59;8.57;;;1.98;;
59040;SDS011;44825;53.200;6.448;2022-08-18T11:14:49;6.65;;;1.83;;
59040;SDS011;44825;53.200;6.448;2022-08-18T11:17:42;6.22;;;2.00;;
59040;SDS011;44825;53.200;6.448;2022-08-18T11:20:18;4.95;;;1.58;;
59040;SDS011;44825;53.200;6.448;2022-08-18T11:22:50;7.50;;;2.25;;
59040;SDS011;44825;53.200;6.448;2022-08-18T11:25:21;5.00;;;2.20;;
59040;SDS011;44825;53.200;6.448;2022-08-18T11:27:55;8.38;;;3.08;;
59040;SDS011;44825;53.200;6.448;2022-08-18T11:30:25;5.68;;;2.47;;
59040;SDS011;44825;53.200;6.448;2022-08-18T11:32:54;4.68;;;2.33;;
59040;SDS011;44825;53.200;6.448;2022-08-18T11:35:23;6.70;;;2.33;;
59040;SDS011;44825;53.200;6.448;2022-08-18T11:37:55;6.30;;;2.13;;
59040;SDS011;44825;53.200;6.448;2022-08-18T11:40:29;6.30;;;2.40;;
59040;SDS011;44825;53.200;6.448;2022-08-18T11:43:02;5.63;;;2.38;;
59040;SDS011;44825;53.200;6.448;2022-08-18T11:45:33;5.78;;;1.70;;
59040;SDS011;44825;53.200;6.448;2022-08-18T11:48:16;7.68;;;2.38;;
59040;SDS011;44825;53.200;6.448;2022-08-18T11:50:46;4.82;;;2.17;;
59040;SDS011;44825;53.200;6.448;2022-08-18T11:53:22;6.95;;;1.92;;
59040;SDS011;44825;53.200;6.448;2022-08-18T11:56:01;4.90;;;1.90;;
59040;SDS011;44825;53.200;6.448;2022-08-18T11:58:38;7.35;;;2.15;;
59040;SDS011;44825;53.200;6.448;2022-08-18T12:01:10;3.58;;;1.50;;
59040;SDS011;44825;53.200;6.448;2022-08-18T12:03:56;5.47;;;2.00;;
59040;SDS011;44825;53.200;6.448;2022-08-18T12:06:25;3.75;;;1.70;;
59040;SDS011;44825;53.200;6.448;2022-08-18T12:08:56;4.10;;;1.60;;
59040;SDS011;44825;53.200;6.448;2022-08-18T12:11:27;3.10;;;1.52;;
59040;SDS011;44825;53.200;6.448;2022-08-18T12:14:03;2.88;;;1.42;;
59040;SDS011;44825;53.200;6.448;2022-08-18T12:16:34;4.10;;;1.48;;
59040;SDS011;44825;53.200;6.448;2022-08-18T12:19:05;4.60;;;1.60;;
59040;SDS011;44825;53.200;6.448;2022-08-18T12:21:36;4.35;;;1.52;;
59040;SDS011;44825;53.200;6.448;2022-08-18T12:24:04;6.18;;;2.00;;
59040;SDS011;44825;53.200;6.448;2022-08-18T12:26:34;8.60;;;1.92;;
59040;SDS011;44825;53.200;6.448;2022-08-18T12:29:03;4.53;;;1.88;;
59040;SDS011;44825;53.200;6.448;2022-08-18T12:31:30;5.30;;;1.70;;
59040;SDS011;44825;53.200;6.448;2022-08-18T12:33:57;4.80;;;1.88;;
59040;SDS011;44825;53.200;6.448;2022-08-18T12:36:25;4.13;;;1.63;;
59040;SDS011;44825;53.200;6.448;2022-08-18T12:38:54;3.47;;;1.60;;
59040;SDS011;44825;53.200;6.448;2022-08-18T12:41:21;5.03;;;1.70;;
59040;SDS011;44825;53.200;6.448;2022-08-18T12:43:49;4.47;;;1.40;;
59040;SDS011;44825;53.200;6.448;2022-08-18T12:46:19;4.22;;;2.10;;
59040;SDS011;44825;53.200;6.448;2022-08-18T12:48:47;10.07;;;1.98;;
59040;SDS011;44825;53.200;6.448;2022-08-18T12:51:14;3.35;;;1.70;;
59040;SDS011;44825;53.200;6.448;2022-08-18T12:53:42;4.00;;;1.63;;
59040;SDS011;44825;53.200;6.448;2022-08-18T12:56:13;9.10;;;2.25;;
59040;SDS011;44825;53.200;6.448;2022-08-18T12:58:45;4.38;;;1.80;;
59040;SDS011;44825;53.200;6.448;2022-08-18T13:01:12;3.90;;;1.83;;
59040;SDS011;44825;53.200;6.448;2022-08-18T13:03:41;2.72;;;1.38;;
59040;SDS011;44825;53.200;6.448;2022-08-18T13:06:09;4.55;;;1.70;;
59040;SDS011;44825;53.200;6.448;2022-08-18T13:08:37;4.65;;;1.80;;
59040;SDS011;44825;53.200;6.448;2022-08-18T13:11:04;3.63;;;1.63;;
59040;SDS011;44825;53.200;6.448;2022-08-18T13:13:35;4.38;;;1.80;;
59040;SDS011;44825;53.200;6.448;2022-08-18T13:16:04;4.63;;;1.60;;
59040;SDS011;44825;53.200;6.448;2022-08-18T13:18:32;5.32;;;2.10;;
59040;SDS011;44825;53.200;6.448;2022-08-18T13:21:01;4.35;;;1.80;;
59040;SDS011;44825;53.200;6.448;2022-08-18T13:23:29;5.80;;;2.10;;
59040;SDS011;44825;53.200;6.448;2022-08-18T13:25:58;5.45;;;1.98;;
59040;SDS011;44825;53.200;6.448;2022-08-18T13:28:26;3.55;;;1.75;;
59040;SDS011;44825;53.200;6.448;2022-08-18T13:30:54;5.35;;;2.15;;
59040;SDS011;44825;53.200;6.448;2022-08-18T13:33:22;4.38;;;2.10;;
59040;SDS011;44825;53.200;6.448;2022-08-18T13:35:50;5.45;;;1.73;;
59040;SDS011;44825;53.200;6.448;2022-08-18T13:38:19;4.57;;;1.60;;
59040;SDS011;44825;53.200;6.448;2022-08-18T13:40:48;6.43;;;1.90;;
59040;SDS011;44825;53.200;6.448;2022-08-18T13:43:16;5.28;;;1.48;;
59040;SDS011;44825;53.200;6.448;2022-08-18T13:45:50;2.83;;;1.40;;
59040;SDS011;44825;53.200;6.448;2022-08-18T13:48:18;4.45;;;1.40;;
59040;SDS011;44825;53.200;6.448;2022-08-18T13:50:46;3.42;;;1.70;;
59040;SDS011;44825;53.200;6.448;2022-08-18T13:53:14;4.78;;;1.63;;
59040;SDS011;44825;53.200;6.448;2022-08-18T13:55:45;5.28;;;1.70;;
59040;SDS011;44825;53.200;6.448;2022-08-18T13:58:13;3.90;;;1.80;;
59040;SDS011;44825;53.200;6.448;2022-08-18T14:00:40;2.88;;;1.48;;
59040;SDS011;44825;53.200;6.448;2022-08-18T14:03:08;3.15;;;1.85;;
59040;SDS011;44825;53.200;6.448;2022-08-18T14:05:36;4.88;;;1.73;;
59040;SDS011;44825;53.200;6.448;2022-08-18T14:08:03;5.15;;;1.98;;
59040;SDS011;44825;53.200;6.448;2022-08-18T14:10:31;2.90;;;1.50;;
59040;SDS011;44825;53.200;6.448;2022-08-18T14:13:00;5.00;;;1.90;;
59040;SDS011;44825;53.200;6.448;2022-08-18T14:15:27;6.22;;;1.98;;
59040;SDS011;44825;53.200;6.448;2022-08-18T14:17:56;2.13;;;1.35;;
59040;SDS011;44825;53.200;6.448;2022-08-18T14:20:23;4.47;;;1.60;;
59040;SDS011;44825;53.200;6.448;2022-08-18T14:23:08;3.33;;;1.70;;
59040;SDS011;44825;53.200;6.448;2022-08-18T14:25:53;2.50;;;1.10;;
59040;SDS011;44825;53.200;6.448;2022-08-18T14:28:40;3.13;;;1.40;;
59040;SDS011;44825;53.200;6.448;2022-08-18T14:31:07;3.00;;;1.65;;
59040;SDS011;44825;53.200;6.448;2022-08-18T14:33:36;4.72;;;1.77;;
59040;SDS011;44825;53.200;6.448;2022-08-18T14:36:04;4.28;;;1.90;;
59040;SDS011;44825;53.200;6.448;2022-08-18T14:38:32;4.47;;;1.92;;
59040;SDS011;44825;53.200;6.448;2022-08-18T14:41:00;4.57;;;1.45;;
59040;SDS011;44825;53.200;6.448;2022-08-18T14:43:30;4.95;;;1.70;;
59040;SDS011;44825;53.200;6.448;2022-08-18T14:46:01;4.68;;;2.20;;
59040;SDS011;44825;53.200;6.448;2022-08-18T14:48:29;4.70;;;1.77;;
59040;SDS011;44825;53.200;6.448;2022-08-18T14:50:58;3.35;;;1.58;;
59040;SDS011;44825;53.200;6.448;2022-08-18T14:53:27;3.45;;;1.52;;
59040;SDS011;44825;53.200;6.448;2022-08-18T14:55:57;5.00;;;1.83;;
59040;SDS011;44825;53.200;6.448;2022-08-18T14:58:26;4.20;;;1.70;;
59040;SDS011;44825;53.200;6.448;2022-08-18T15:00:55;3.15;;;1.77;;
59040;SDS011;44825;53.200;6.448;2022-08-18T15:03:25;6.20;;;1.70;;
59040;SDS011;44825;53.200;6.448;2022-08-18T15:05:54;4.47;;;1.90;;
59040;SDS011;44825;53.200;6.448;2022-08-18T15:08:22;6.15;;;1.70;;
59040;SDS011;44825;53.200;6.448;2022-08-18T15:10:49;3.47;;;1.60;;
59040;SDS011;44825;53.200;6.448;2022-08-18T15:13:17;4.30;;;1.85;;
59040;SDS011;44825;53.200;6.448;2022-08-18T15:15:44;3.40;;;1.80;;
59040;SDS011;44825;53.200;6.448;2022-08-18T15:18:12;4.07;;;1.58;;
59040;SDS011;44825;53.200;6.448;2022-08-18T15:20:40;5.45;;;2.13;;
59040;SDS011;44825;53.200;6.448;2022-08-18T15:23:21;3.00;;;1.73;;
59040;SDS011;44825;53.200;6.448;2022-08-18T15:26:06;4.55;;;2.00;;
59040;SDS011;44825;53.200;6.448;2022-08-18T15:28:34;3.88;;;1.65;;
59040;SDS011;44825;53.200;6.448;2022-08-18T15:31:02;4.82;;;1.70;;
59040;SDS011;44825;53.200;6.448;2022-08-18T15:33:30;4.38;;;1.40;;
59040;SDS011;44825;53.200;6.448;2022-08-18T15:36:01;4.57;;;1.73;;